sensor_id;sensor_type;location;lat;lon;timestamp;temperature;humidity
9668;DHT22;4872;48.316;10.650;2023-11-21T04:52:45;6.80;99.90
9668;DHT22;4872;48.316;10.650;2023-11-21T04:55:11;6.70;99.90
9668;DHT22;4872;48.316;10.650;2023-11-21T04:57:38;6.70;99.90
9668;DHT22;4872;48.316;10.650;2023-11-21T05:00:08;6.90;99.90
9668;DHT22;4872;48.316;10.650;2023-11-21T05:02:35;6.80;99.90
9668;DHT22;4872;48.316;10.650;2023-11-21T05:05:04;6.90;99.90
9668;DHT22;4872;48.316;10.650;2023-11-21T05:07:31;6.80;99.90
9668;DHT22;4872;48.316;10.650;2023-11-21T05:10:03;6.80;99.90
9668;DHT22;4872;48.316;10.650;2023-11-21T05:12:31;6.70;99.90
9668;DHT22;4872;48.316;10.650;2023-11-21T05:15:00;6.70;99.90
9668;DHT22;4872;48.316;10.650;2023-11-21T05:17:28;6.70;99.90
9668;DHT22;4872;48.316;10.650;2023-11-21T05:19:55;6.80;99.90
9668;DHT22;4872;48.316;10.650;2023-11-21T05:22:22;6.80;99.90
9668;DHT22;4872;48.316;10.650;2023-11-21T05:24:48;6.70;99.90
9668;DHT22;4872;48.316;10.650;2023-11-21T05:27:17;6.70;99.90
9668;DHT22;4872;48.316;10.650;2023-11-21T05:29:44;6.60;99.90
9668;DHT22;4872;48.316;10.650;2023-11-21T05:32:11;6.70;99.90
9668;DHT22;4872;48.316;10.650;2023-11-21T05:34:37;6.70;99.90
9668;DHT22;4872;48.316;10.650;2023-11-21T05:37:04;6.70;99.90
9668;DHT22;4872;48.316;10.650;2023-11-21T05:39:31;6.60;99.90
9668;DHT22;4872;48.316;10.650;2023-11-21T05:41:58;6.60;99.90
9668;DHT22;4872;48.316;10.650;2023-11-21T05:44:27;6.60;99.90
9668;DHT22;4872;48.316;10.650;2023-11-21T05:46:53;6.60;99.90
9668;DHT22;4872;48.316;10.650;2023-11-21T05:49:20;6.60;99.90
9668;DHT22;4872;48.316;10.650;2023-11-21T05:51:47;6.70;99.90
9668;DHT22;4872;48.316;10.650;2023-11-21T05:54:14;6.60;99.90
9668;DHT22;4872;48.316;10.650;2023-11-21T05:56:40;6.50;99.90
9668;DHT22;4872;48.316;10.650;2023-11-21T05:59:07;6.60;99.90
9668;DHT22;4872;48.316;10.650;2023-11-21T06:01:36;6.70;99.90
9668;DHT22;4872;48.316;10.650;2023-11-21T06:04:04;6.60;99.90
9668;DHT22;4872;48.316;10.650;2023-11-21T06:06:33;6.60;99.90
9668;DHT22;4872;48.316;10.650;2023-11-21T06:09:00;6.60;99.90
9668;DHT22;4872;48.316;10.650;2023-11-21T06:11:27;6.60;99.90
9668;DHT22;4872;48.316;10.650;2023-11-21T06:13:54;6.60;99.90
9668;DHT22;4872;48.316;10.650;2023-11-21T06:16:21;6.40;99.90
9668;DHT22;4872;48.316;10.650;2023-11-21T06:18:49;6.40;99.90
9668;DHT22;4872;48.316;10.650;2023-11-21T06:21:16;6.40;99.90
9668;DHT22;4872;48.316;10.650;2023-11-21T06:23:44;6.40;99.90
9668;DHT22;4872;48.316;10.650;2023-11-21T06:26:10;6.40;99.90
9668;DHT22;4872;48.316;10.650;2023-11-21T06:28:38;6.50;99.90
9668;DHT22;4872;48.316;10.650;2023-11-21T06:31:05;6.50;99.90
9668;DHT22;4872;48.316;10.650;2023-11-21T06:33:32;6.50;99.90
9668;DHT22;4872;48.316;10.650;2023-11-21T06:36:00;6.50;99.90
9668;DHT22;4872;48.316;10.650;2023-11-21T06:38:28;6.50;99.90
9668;DHT22;4872;48.316;10.650;2023-11-21T06:40:55;6.60;99.90
9668;DHT22;4872;48.316;10.650;2023-11-21T06:43:23;6.50;99.90
9668;DHT22;4872;48.316;10.650;2023-11-21T06:45:50;6.40;99.90
9668;DHT22;4872;48.316;10.650;2023-11-21T06:48:17;6.40;99.90
9668;DHT22;4872;48.316;10.650;2023-11-21T06:50:44;6.40;99.90
9668;DHT22;4872;48.316;10.650;2023-11-21T06:53:13;6.40;99.90
9668;DHT22;4872;48.316;10.650;2023-11-21T06:55:40;6.60;99.90
9668;DHT22;4872;48.316;10.650;2023-11-21T06:58:07;6.50;99.90
9668;DHT22;4872;48.316;10.650;2023-11-21T07:00:34;6.60;99.90
9668;DHT22;4872;48.316;10.650;2023-11-21T07:03:00;6.70;99.90
9668;DHT22;4872;48.316;10.650;2023-11-21T07:05:27;6.70;99.90
9668;DHT22;4872;48.316;10.650;2023-11-21T07:07:54;6.80;99.90
9668;DHT22;4872;48.316;10.650;2023-11-21T07:10:22;6.80;99.90
9668;DHT22;4872;48.316;10.650;2023-11-21T07:12:49;6.80;99.90
9668;DHT22;4872;48.316;10.650;2023-11-21T07:15:16;6.80;99.90
9668;DHT22;4872;48.316;10.650;2023-11-21T07:17:45;6.80;99.90
9668;DHT22;4872;48.316;10.650;2023-11-21T07:20:12;6.80;99.90
9668;DHT22;4872;48.316;10.650;2023-11-21T07:22:39;6.80;99.90
9668;DHT22;4872;48.316;10.650;2023-11-21T07:25:06;6.90;99.90
9668;DHT22;4872;48.316;10.650;2023-11-21T07:27:36;6.90;99.90
9668;DHT22;4872;48.316;10.650;2023-11-21T07:30:04;6.90;99.90
9668;DHT22;4872;48.316;10.650;2023-11-21T07:32:31;7.00;99.90
9668;DHT22;4872;48.316;10.650;2023-11-21T07:34:58;6.90;99.90
9668;DHT22;4872;48.316;10.650;2023-11-21T07:37:27;7.10;99.90
9668;DHT22;4872;48.316;10.650;2023-11-21T07:39:54;7.20;99.90
9668;DHT22;4872;48.316;10.650;2023-11-21T07:42:22;7.20;99.90
9668;DHT22;4872;48.316;10.650;2023-11-21T07:44:50;7.10;99.90
9668;DHT22;4872;48.316;10.650;2023-11-21T07:47:17;7.20;99.90
9668;DHT22;4872;48.316;10.650;2023-11-21T07:49:44;7.20;99.90
9668;DHT22;4872;48.316;10.650;2023-11-21T07:52:12;7.30;99.90
9668;DHT22;4872;48.316;10.650;2023-11-21T07:54:41;7.40;99.90
9668;DHT22;4872;48.316;10.650;2023-11-21T07:57:08;7.30;99.90
9668;DHT22;4872;48.316;10.650;2023-11-21T07:59:38;7.40;99.90
9668;DHT22;4872;48.316;10.650;2023-11-21T08:02:07;7.40;99.90
9668;DHT22;4872;48.316;10.650;2023-11-21T08:04:34;7.30;99.90
9668;DHT22;4872;48.316;10.650;2023-11-21T08:07:02;7.40;99.90
9668;DHT22;4872;48.316;10.650;2023-11-21T08:09:29;7.40;99.90
9668;DHT22;4872;48.316;10.650;2023-11-21T08:11:56;7.40;99.90
9668;DHT22;4872;48.316;10.650;2023-11-21T08:14:23;7.40;99.90
9668;DHT22;4872;48.316;10.650;2023-11-21T08:16:51;7.50;99.90
9668;DHT22;4872;48.316;10.650;2023-11-21T08:19:19;7.50;99.90
9668;DHT22;4872;48.316;10.650;2023-11-21T08:21:46;7.50;99.90
9668;DHT22;4872;48.316;10.650;2023-11-21T08:24:13;7.60;99.90
9668;DHT22;4872;48.316;10.650;2023-11-21T08:26:39;7.50;99.90
9668;DHT22;4872;48.316;10.650;2023-11-21T08:29:06;7.60;99.90
9668;DHT22;4872;48.316;10.650;2023-11-21T08:31:34;7.70;99.90
9668;DHT22;4872;48.316;10.650;2023-11-21T08:34:01;7.70;99.90
9668;DHT22;4872;48.316;10.650;2023-11-21T08:36:29;7.90;99.90
9668;DHT22;4872;48.316;10.650;2023-11-21T08:38:57;8.00;99.90
9668;DHT22;4872;48.316;10.650;2023-11-21T08:41:24;8.00;99.90
9668;DHT22;4872;48.316;10.650;2023-11-21T08:43:53;8.10;99.90
9668;DHT22;4872;48.316;10.650;2023-11-21T08:46:20;8.10;99.90
9668;DHT22;4872;48.316;10.650;2023-11-21T08:48:48;8.20;99.90
9668;DHT22;4872;48.316;10.650;2023-11-21T08:51:18;8.30;99.90
9668;DHT22;4872;48.316;10.650;2023-11-21T08:53:46;8.30;99.90
9668;DHT22;4872;48.316;10.650;2023-11-21T08:56:13;8.30;99.90
9668;DHT22;4872;48.316;10.650;2023-11-21T08:58:40;8.30;99.90
9668;DHT22;4872;48.316;10.650;2023-11-21T09:01:07;8.50;99.90
9668;DHT22;4872;48.316;10.650;2023-11-21T09:03:34;8.30;99.90
9668;DHT22;4872;48.316;10.650;2023-11-21T09:06:02;8.30;99.90
9668;DHT22;4872;48.316;10.650;2023-11-21T09:08:29;8.30;99.90
9668;DHT22;4872;48.316;10.650;2023-11-21T09:10:57;8.40;99.90
9668;DHT22;4872;48.316;10.650;2023-11-21T09:13:24;8.40;99.90
9668;DHT22;4872;48.316;10.650;2023-11-21T09:15:51;8.20;99.90
9668;DHT22;4872;48.316;10.650;2023-11-21T09:18:18;8.20;99.90
9668;DHT22;4872;48.316;10.650;2023-11-21T09:20:44;8.30;99.90
9668;DHT22;4872;48.316;10.650;2023-11-21T09:23:12;8.20;99.90
9668;DHT22;4872;48.316;10.650;2023-11-21T09:25:38;8.20;99.90
9668;DHT22;4872;48.316;10.650;2023-11-21T09:28:07;8.10;99.90
9668;DHT22;4872;48.316;10.650;2023-11-21T09:30:34;8.20;99.90
9668;DHT22;4872;48.316;10.650;2023-11-21T09:33:01;8.20;99.90
9668;DHT22;4872;48.316;10.650;2023-11-21T09:35:28;8.30;99.90
9668;DHT22;4872;48.316;10.650;2023-11-21T09:37:55;8.40;99.90
9668;DHT22;4872;48.316;10.650;2023-11-21T09:40:22;8.60;99.90
9668;DHT22;4872;48.316;10.650;2023-11-21T09:42:53;8.70;99.90
9668;DHT22;4872;48.316;10.650;2023-11-21T09:45:25;8.80;99.90
9668;DHT22;4872;48.316;10.650;2023-11-21T09:47:53;8.70;99.90
9668;DHT22;4872;48.316;10.650;2023-11-21T09:50:22;8.70;99.90
9668;DHT22;4872;48.316;10.650;2023-11-21T09:52:55;8.80;99.90
9668;DHT22;4872;48.316;10.650;2023-11-21T09:55:27;8.90;99.90
9668;DHT22;4872;48.316;10.650;2023-11-21T09:57:56;9.00;99.90
9668;DHT22;4872;48.316;10.650;2023-11-21T10:00:24;9.20;99.90
9668;DHT22;4872;48.316;10.650;2023-11-21T10:02:53;9.30;99.90
9668;DHT22;4872;48.316;10.650;2023-11-21T10:05:20;9.40;99.90
9668;DHT22;4872;48.316;10.650;2023-11-21T10:07:49;9.50;99.90
9668;DHT22;4872;48.316;10.650;2023-11-21T10:10:18;9.40;99.90
9668;DHT22;4872;48.316;10.650;2023-11-21T10:12:48;9.20;99.90
9668;DHT22;4872;48.316;10.650;2023-11-21T10:15:16;9.10;99.90
9668;DHT22;4872;48.316;10.650;2023-11-21T10:17:46;9.30;99.90
9668;DHT22;4872;48.316;10.650;2023-11-21T10:20:14;9.40;99.90
9668;DHT22;4872;48.316;10.650;2023-11-21T10:22:43;9.30;99.90
9668;DHT22;4872;48.316;10.650;2023-11-21T10:25:10;9.50;99.90
9668;DHT22;4872;48.316;10.650;2023-11-21T10:27:40;9.50;99.90
9668;DHT22;4872;48.316;10.650;2023-11-21T10:30:09;9.70;99.90
9668;DHT22;4872;48.316;10.650;2023-11-21T10:32:37;9.90;99.90
9668;DHT22;4872;48.316;10.650;2023-11-21T10:35:08;10.20;99.90
9668;DHT22;4872;48.316;10.650;2023-11-21T10:37:35;11.10;99.90
9668;DHT22;4872;48.316;10.650;2023-11-21T10:40:05;11.30;99.90
9668;DHT22;4872;48.316;10.650;2023-11-21T10:42:32;11.40;99.40
9668;DHT22;4872;48.316;10.650;2023-11-21T10:44:59;11.20;99.00
9668;DHT22;4872;48.316;10.650;2023-11-21T10:47:30;10.70;99.40
9668;DHT22;4872;48.316;10.650;2023-11-21T10:49:57;11.00;99.50
9668;DHT22;4872;48.316;10.650;2023-11-21T10:52:28;11.30;99.20
9668;DHT22;4872;48.316;10.650;2023-11-21T10:54:55;10.90;99.00
9668;DHT22;4872;48.316;10.650;2023-11-21T10:57:25;11.00;98.80
9668;DHT22;4872;48.316;10.650;2023-11-21T10:59:54;10.90;98.30
9668;DHT22;4872;48.316;10.650;2023-11-21T11:02:23;10.70;99.20
9668;DHT22;4872;48.316;10.650;2023-11-21T11:04:53;10.20;99.10
9668;DHT22;4872;48.316;10.650;2023-11-21T11:07:25;10.00;99.50
9668;DHT22;4872;48.316;10.650;2023-11-21T11:09:54;10.20;99.90
9668;DHT22;4872;48.316;10.650;2023-11-21T11:12:21;10.30;99.80
9668;DHT22;4872;48.316;10.650;2023-11-21T11:14:48;10.20;99.30
9668;DHT22;4872;48.316;10.650;2023-11-21T11:17:15;10.10;99.60
9668;DHT22;4872;48.316;10.650;2023-11-21T11:19:45;10.10;99.90
9668;DHT22;4872;48.316;10.650;2023-11-21T11:22:19;9.90;99.90
9668;DHT22;4872;48.316;10.650;2023-11-21T11:28:04;9.80;99.90
9668;DHT22;4872;48.316;10.650;2023-11-21T11:30:41;9.70;99.90
9668;DHT22;4872;48.316;10.650;2023-11-21T11:33:16;9.90;99.90
9668;DHT22;4872;48.316;10.650;2023-11-21T11:35:57;10.10;99.60
9668;DHT22;4872;48.316;10.650;2023-11-21T11:38:31;10.20;99.80
9668;DHT22;4872;48.316;10.650;2023-11-21T11:41:02;10.70;99.40
9668;DHT22;4872;48.316;10.650;2023-11-21T11:43:30;11.20;99.20
9668;DHT22;4872;48.316;10.650;2023-11-21T11:45:59;12.90;99.00
9668;DHT22;4872;48.316;10.650;2023-11-21T11:48:29;14.10;97.20
9668;DHT22;4872;48.316;10.650;2023-11-21T11:51:03;14.20;95.50
9668;DHT22;4872;48.316;10.650;2023-11-21T11:53:36;14.40;94.40
9668;DHT22;4872;48.316;10.650;2023-11-21T11:56:26;13.60;94.60
9668;DHT22;4872;48.316;10.650;2023-11-21T11:58:55;12.60;95.40
9668;DHT22;4872;48.316;10.650;2023-11-21T12:01:22;12.00;95.70
9668;DHT22;4872;48.316;10.650;2023-11-21T12:04:24;11.40;96.50
9668;DHT22;4872;48.316;10.650;2023-11-21T12:06:57;10.70;97.30
9668;DHT22;4872;48.316;10.650;2023-11-21T12:09:28;10.60;97.80
9668;DHT22;4872;48.316;10.650;2023-11-21T12:11:58;10.30;97.90
9668;DHT22;4872;48.316;10.650;2023-11-21T12:14:25;10.10;98.80
9668;DHT22;4872;48.316;10.650;2023-11-21T12:16:53;10.10;99.30
9668;DHT22;4872;48.316;10.650;2023-11-21T12:19:20;9.70;99.80
9668;DHT22;4872;48.316;10.650;2023-11-21T12:21:48;9.70;99.90
9668;DHT22;4872;48.316;10.650;2023-11-21T12:24:16;9.60;99.90
9668;DHT22;4872;48.316;10.650;2023-11-21T12:26:43;9.50;99.90
9668;DHT22;4872;48.316;10.650;2023-11-21T12:29:11;9.50;99.90
9668;DHT22;4872;48.316;10.650;2023-11-21T12:31:38;9.40;99.90
9668;DHT22;4872;48.316;10.650;2023-11-21T12:34:06;9.30;99.90
9668;DHT22;4872;48.316;10.650;2023-11-21T12:36:36;9.40;99.90
9668;DHT22;4872;48.316;10.650;2023-11-21T12:39:03;9.50;99.90
9668;DHT22;4872;48.316;10.650;2023-11-21T12:41:30;9.70;99.90
9668;DHT22;4872;48.316;10.650;2023-11-21T12:43:57;9.90;99.90
9668;DHT22;4872;48.316;10.650;2023-11-21T12:46:26;9.90;99.90
9668;DHT22;4872;48.316;10.650;2023-11-21T12:48:56;10.10;99.90
9668;DHT22;4872;48.316;10.650;2023-11-21T12:51:23;10.20;99.90
9668;DHT22;4872;48.316;10.650;2023-11-21T12:53:50;10.40;99.90
9668;DHT22;4872;48.316;10.650;2023-11-21T12:56:18;10.40;99.90
9668;DHT22;4872;48.316;10.650;2023-11-21T12:58:49;10.50;99.90
9668;DHT22;4872;48.316;10.650;2023-11-21T13:01:17;10.50;99.90
9668;DHT22;4872;48.316;10.650;2023-11-21T13:03:48;10.90;99.90
9668;DHT22;4872;48.316;10.650;2023-11-21T13:06:18;10.90;99.90
9668;DHT22;4872;48.316;10.650;2023-11-21T13:08:45;11.00;99.90
9668;DHT22;4872;48.316;10.650;2023-11-21T13:11:13;11.20;99.90
9668;DHT22;4872;48.316;10.650;2023-11-21T13:13:41;11.20;99.90
9668;DHT22;4872;48.316;10.650;2023-11-21T13:16:13;11.30;99.90
9668;DHT22;4872;48.316;10.650;2023-11-21T13:18:41;11.20;99.90
9668;DHT22;4872;48.316;10.650;2023-11-21T13:21:17;11.20;99.90
9668;DHT22;4872;48.316;10.650;2023-11-21T13:23:44;11.20;99.60
9668;DHT22;4872;48.316;10.650;2023-11-21T13:26:14;11.20;99.90
9668;DHT22;4872;48.316;10.650;2023-11-21T13:28:41;11.10;99.90
9668;DHT22;4872;48.316;10.650;2023-11-21T13:31:11;11.10;99.50
9668;DHT22;4872;48.316;10.650;2023-11-21T13:33:47;10.90;99.20
9668;DHT22;4872;48.316;10.650;2023-11-21T13:36:23;10.80;99.30
9668;DHT22;4872;48.316;10.650;2023-11-21T13:38:51;10.40;99.80
9668;DHT22;4872;48.316;10.650;2023-11-21T13:41:19;10.20;99.80
9668;DHT22;4872;48.316;10.650;2023-11-21T13:43:48;10.00;99.90
9668;DHT22;4872;48.316;10.650;2023-11-21T13:46:23;9.40;99.90
9668;DHT22;4872;48.316;10.650;2023-11-21T13:48:50;9.20;99.90
9668;DHT22;4872;48.316;10.650;2023-11-21T13:51:22;9.10;99.90
9668;DHT22;4872;48.316;10.650;2023-11-21T13:53:57;8.80;99.90
9668;DHT22;4872;48.316;10.650;2023-11-21T13:56:24;8.80;99.90
9668;DHT22;4872;48.316;10.650;2023-11-21T13:58:54;8.70;99.90
9668;DHT22;4872;48.316;10.650;2023-11-21T14:01:22;8.60;99.90
9668;DHT22;4872;48.316;10.650;2023-11-21T14:04:10;8.50;99.90
9668;DHT22;4872;48.316;10.650;2023-11-21T14:06:47;8.30;99.90
9668;DHT22;4872;48.316;10.650;2023-11-21T14:09:15;8.20;99.90
9668;DHT22;4872;48.316;10.650;2023-11-21T14:11:49;8.40;99.90
9668;DHT22;4872;48.316;10.650;2023-11-21T14:14:17;8.20;99.90
9668;DHT22;4872;48.316;10.650;2023-11-21T14:16:43;8.10;99.90
9668;DHT22;4872;48.316;10.650;2023-11-21T14:19:11;7.90;99.90
9668;DHT22;4872;48.316;10.650;2023-11-21T14:21:41;7.80;99.90
9668;DHT22;4872;48.316;10.650;2023-11-21T14:24:11;7.80;99.90
9668;DHT22;4872;48.316;10.650;2023-11-21T14:26:40;7.80;99.90
9668;DHT22;4872;48.316;10.650;2023-11-21T14:29:08;7.80;99.90
9668;DHT22;4872;48.316;10.650;2023-11-21T14:31:38;7.70;99.90
9668;DHT22;4872;48.316;10.650;2023-11-21T14:34:04;7.70;99.90
9668;DHT22;4872;48.316;10.650;2023-11-21T14:36:32;7.60;99.90
9668;DHT22;4872;48.316;10.650;2023-11-21T14:38:59;7.70;99.90
9668;DHT22;4872;48.316;10.650;2023-11-21T14:41:27;7.60;99.90
9668;DHT22;4872;48.316;10.650;2023-11-21T14:43:54;7.60;99.90
9668;DHT22;4872;48.316;10.650;2023-11-21T14:46:22;7.70;99.90
9668;DHT22;4872;48.316;10.650;2023-11-21T14:48:49;7.80;99.90
9668;DHT22;4872;48.316;10.650;2023-11-21T14:51:24;7.70;99.90
9668;DHT22;4872;48.316;10.650;2023-11-21T14:53:59;7.70;99.90
9668;DHT22;4872;48.316;10.650;2023-11-21T14:56:33;7.70;99.90
9668;DHT22;4872;48.316;10.650;2023-11-21T14:59:01;7.70;99.90
9668;DHT22;4872;48.316;10.650;2023-11-21T15:01:34;7.70;99.90
9668;DHT22;4872;48.316;10.650;2023-11-21T15:04:10;7.70;99.90
9668;DHT22;4872;48.316;10.650;2023-11-21T15:06:48;7.70;99.90
9668;DHT22;4872;48.316;10.650;2023-11-21T15:09:14;7.80;99.90
9668;DHT22;4872;48.316;10.650;2023-11-21T15:12:02;7.80;99.90
9668;DHT22;4872;48.316;10.650;2023-11-21T15:14:39;7.80;99.90
9668;DHT22;4872;48.316;10.650;2023-11-21T15:17:06;7.80;99.90
9668;DHT22;4872;48.316;10.650;2023-11-21T15:19:33;7.80;99.90
9668;DHT22;4872;48.316;10.650;2023-11-21T15:22:01;7.80;99.90
9668;DHT22;4872;48.316;10.650;2023-11-21T15:24:28;7.70;99.90
9668;DHT22;4872;48.316;10.650;2023-11-21T15:26:54;7.70;99.90
9668;DHT22;4872;48.316;10.650;2023-11-21T15:29:23;7.70;99.90
9668;DHT22;4872;48.316;10.650;2023-11-21T15:31:51;7.80;99.90
9668;DHT22;4872;48.316;10.650;2023-11-21T15:34:21;7.70;99.90
9668;DHT22;4872;48.316;10.650;2023-11-21T15:36:49;7.60;99.90
9668;DHT22;4872;48.316;10.650;2023-11-21T15:39:18;7.70;99.90
9668;DHT22;4872;48.316;10.650;2023-11-21T15:41:47;7.70;99.90
9668;DHT22;4872;48.316;10.650;2023-11-21T15:44:14;7.60;99.90
9668;DHT22;4872;48.316;10.650;2023-11-21T15:46:42;7.60;99.90
9668;DHT22;4872;48.316;10.650;2023-11-21T15:49:10;7.40;99.90
9668;DHT22;4872;48.316;10.650;2023-11-21T15:51:39;7.40;99.90
9668;DHT22;4872;48.316;10.650;2023-11-21T15:54:06;7.30;99.90
9668;DHT22;4872;48.316;10.650;2023-11-21T15:56:33;7.40;99.90
9668;DHT22;4872;48.316;10.650;2023-11-21T15:59:02;7.40;99.90
9668;DHT22;4872;48.316;10.650;2023-11-21T16:01:30;7.40;99.90
9668;DHT22;4872;48.316;10.650;2023-11-21T16:03:59;7.50;99.90
9668;DHT22;4872;48.316;10.650;2023-11-21T16:06:27;7.60;99.90
9668;DHT22;4872;48.316;10.650;2023-11-21T16:08:54;7.60;99.90
9668;DHT22;4872;48.316;10.650;2023-11-21T16:11:24;7.70;99.90
9668;DHT22;4872;48.316;10.650;2023-11-21T16:13:51;7.80;99.90
9668;DHT22;4872;48.316;10.650;2023-11-21T16:16:21;7.80;99.90
9668;DHT22;4872;48.316;10.650;2023-11-21T16:18:48;7.90;99.90
9668;DHT22;4872;48.316;10.650;2023-11-21T16:21:20;7.90;99.90
9668;DHT22;4872;48.316;10.650;2023-11-21T16:23:48;7.90;99.90
9668;DHT22;4872;48.316;10.650;2023-11-21T16:26:16;8.00;99.90
9668;DHT22;4872;48.316;10.650;2023-11-21T16:28:46;8.00;99.90
9668;DHT22;4872;48.316;10.650;2023-11-21T16:31:12;8.10;99.90
9668;DHT22;4872;48.316;10.650;2023-11-21T16:33:42;7.90;99.90
9668;DHT22;4872;48.316;10.650;2023-11-21T16:36:09;7.90;99.90
9668;DHT22;4872;48.316;10.650;2023-11-21T16:38:37;7.70;99.90
9668;DHT22;4872;48.316;10.650;2023-11-21T16:41:04;7.60;99.90
9668;DHT22;4872;48.316;10.650;2023-11-21T16:43:44;7.60;99.90
9668;DHT22;4872;48.316;10.650;2023-11-21T16:46:15;7.50;99.90
9668;DHT22;4872;48.316;10.650;2023-11-21T16:48:42;7.50;99.90
9668;DHT22;4872;48.316;10.650;2023-11-21T16:51:09;7.40;99.90
9668;DHT22;4872;48.316;10.650;2023-11-21T16:53:39;7.50;99.90
9668;DHT22;4872;48.316;10.650;2023-11-21T16:56:10;7.50;99.90
9668;DHT22;4872;48.316;10.650;2023-11-21T16:58:37;7.60;99.90
9668;DHT22;4872;48.316;10.650;2023-11-21T17:01:04;7.40;99.90
9668;DHT22;4872;48.316;10.650;2023-11-21T17:03:34;7.50;99.90
9668;DHT22;4872;48.316;10.650;2023-11-21T17:06:01;7.40;99.90
9668;DHT22;4872;48.316;10.650;2023-11-21T17:08:31;7.40;99.90
9668;DHT22;4872;48.316;10.650;2023-11-21T17:11:04;7.50;99.90
9668;DHT22;4872;48.316;10.650;2023-11-21T17:13:37;7.30;99.90
9668;DHT22;4872;48.316;10.650;2023-11-21T17:16:04;7.30;99.90
9668;DHT22;4872;48.316;10.650;2023-11-21T17:18:33;7.20;99.90
9668;DHT22;4872;48.316;10.650;2023-11-21T17:21:00;7.30;99.90
9668;DHT22;4872;48.316;10.650;2023-11-21T17:23:36;7.30;99.90
9668;DHT22;4872;48.316;10.650;2023-11-21T17:26:05;7.20;99.90
9668;DHT22;4872;48.316;10.650;2023-11-21T17:28:31;7.20;99.90
9668;DHT22;4872;48.316;10.650;2023-11-21T17:30:58;7.20;99.90
9668;DHT22;4872;48.316;10.650;2023-11-21T17:33:25;7.30;99.90
9668;DHT22;4872;48.316;10.650;2023-11-21T17:35:53;7.40;99.90
9668;DHT22;4872;48.316;10.650;2023-11-21T17:38:20;7.40;99.90
9668;DHT22;4872;48.316;10.650;2023-11-21T17:40:51;7.30;99.90
9668;DHT22;4872;48.316;10.650;2023-11-21T17:43:24;7.30;99.90
9668;DHT22;4872;48.316;10.650;2023-11-21T17:45:51;7.30;99.90
9668;DHT22;4872;48.316;10.650;2023-11-21T17:48:21;7.20;99.90
9668;DHT22;4872;48.316;10.650;2023-11-21T17:50:51;7.30;99.90
9668;DHT22;4872;48.316;10.650;2023-11-21T17:53:21;7.30;99.90
9668;DHT22;4872;48.316;10.650;2023-11-21T17:55:49;7.20;99.90
9668;DHT22;4872;48.316;10.650;2023-11-21T17:58:18;7.20;99.90
9668;DHT22;4872;48.316;10.650;2023-11-21T18:00:48;7.20;99.90
9668;DHT22;4872;48.316;10.650;2023-11-21T18:03:18;7.20;99.90
9668;DHT22;4872;48.316;10.650;2023-11-21T18:05:51;7.30;99.90
9668;DHT22;4872;48.316;10.650;2023-11-21T18:08:19;7.30;99.90
9668;DHT22;4872;48.316;10.650;2023-11-21T18:10:48;7.20;99.90
9668;DHT22;4872;48.316;10.650;2023-11-21T18:13:15;7.20;99.90
9668;DHT22;4872;48.316;10.650;2023-11-21T18:15:43;7.20;99.90
9668;DHT22;4872;48.316;10.650;2023-11-21T18:18:11;7.10;99.90
9668;DHT22;4872;48.316;10.650;2023-11-21T18:20:38;7.10;99.90
9668;DHT22;4872;48.316;10.650;2023-11-21T18:23:05;7.10;99.90
9668;DHT22;4872;48.316;10.650;2023-11-21T18:25:41;7.10;99.90
9668;DHT22;4872;48.316;10.650;2023-11-21T18:28:09;7.20;99.90
9668;DHT22;4872;48.316;10.650;2023-11-21T18:30:35;7.20;99.90
9668;DHT22;4872;48.316;10.650;2023-11-21T18:33:02;7.20;99.90
9668;DHT22;4872;48.316;10.650;2023-11-21T18:35:31;7.20;99.90
9668;DHT22;4872;48.316;10.650;2023-11-21T18:37:57;7.30;99.90
9668;DHT22;4872;48.316;10.650;2023-11-21T18:40:24;7.20;99.90
9668;DHT22;4872;48.316;10.650;2023-11-21T18:42:51;7.30;99.90
9668;DHT22;4872;48.316;10.650;2023-11-21T18:45:18;7.30;99.90
9668;DHT22;4872;48.316;10.650;2023-11-21T18:47:45;7.20;99.90
9668;DHT22;4872;48.316;10.650;2023-11-21T18:50:14;7.20;99.90
9668;DHT22;4872;48.316;10.650;2023-11-21T18:52:44;7.10;99.90
9668;DHT22;4872;48.316;10.650;2023-11-21T18:55:11;7.10;99.90
9668;DHT22;4872;48.316;10.650;2023-11-21T18:57:37;7.00;99.90
9668;DHT22;4872;48.316;10.650;2023-11-21T19:00:06;7.10;99.90
9668;DHT22;4872;48.316;10.650;2023-11-21T19:02:34;7.10;99.90
9668;DHT22;4872;48.316;10.650;2023-11-21T19:05:01;7.10;99.90
9668;DHT22;4872;48.316;10.650;2023-11-21T19:07:30;7.10;99.90
9668;DHT22;4872;48.316;10.650;2023-11-21T19:10:02;7.10;99.90
9668;DHT22;4872;48.316;10.650;2023-11-21T19:12:30;7.10;99.90
9668;DHT22;4872;48.316;10.650;2023-11-21T19:14:57;7.10;99.90
9668;DHT22;4872;48.316;10.650;2023-11-21T19:17:24;7.10;99.90
9668;DHT22;4872;48.316;10.650;2023-11-21T19:19:51;7.10;99.90
9668;DHT22;4872;48.316;10.650;2023-11-21T19:22:18;7.10;99.90
9668;DHT22;4872;48.316;10.650;2023-11-21T19:24:45;7.10;99.90
9668;DHT22;4872;48.316;10.650;2023-11-21T19:27:13;7.10;99.90
9668;DHT22;4872;48.316;10.650;2023-11-21T19:29:40;7.10;99.90
9668;DHT22;4872;48.316;10.650;2023-11-21T19:32:07;7.20;99.90
9668;DHT22;4872;48.316;10.650;2023-11-21T19:34:34;7.10;99.90
9668;DHT22;4872;48.316;10.650;2023-11-21T19:37:01;7.20;99.90
9668;DHT22;4872;48.316;10.650;2023-11-21T19:39:29;7.10;99.90
9668;DHT22;4872;48.316;10.650;2023-11-21T19:41:56;7.20;99.90
9668;DHT22;4872;48.316;10.650;2023-11-21T19:44:24;7.20;99.90
9668;DHT22;4872;48.316;10.650;2023-11-21T19:46:51;7.20;99.90
9668;DHT22;4872;48.316;10.650;2023-11-21T19:49:17;7.10;99.90
9668;DHT22;4872;48.316;10.650;2023-11-21T19:51:45;7.10;99.90
9668;DHT22;4872;48.316;10.650;2023-11-21T19:54:12;7.10;99.90
9668;DHT22;4872;48.316;10.650;2023-11-21T19:56:39;7.10;99.90
9668;DHT22;4872;48.316;10.650;2023-11-21T19:59:07;7.00;99.90
9668;DHT22;4872;48.316;10.650;2023-11-21T20:01:36;7.00;99.90
9668;DHT22;4872;48.316;10.650;2023-11-21T20:04:03;7.00;99.90
9668;DHT22;4872;48.316;10.650;2023-11-21T20:06:30;6.90;99.90
9668;DHT22;4872;48.316;10.650;2023-11-21T20:08:57;7.00;99.90
9668;DHT22;4872;48.316;10.650;2023-11-21T20:11:26;7.00;99.90
9668;DHT22;4872;48.316;10.650;2023-11-21T20:13:57;7.00;99.90
9668;DHT22;4872;48.316;10.650;2023-11-21T20:16:25;7.10;99.90
9668;DHT22;4872;48.316;10.650;2023-11-21T20:18:53;7.10;99.90
9668;DHT22;4872;48.316;10.650;2023-11-21T20:21:21;7.10;99.90
9668;DHT22;4872;48.316;10.650;2023-11-21T20:23:48;7.10;99.90
9668;DHT22;4872;48.316;10.650;2023-11-21T20:26:20;7.00;99.90
9668;DHT22;4872;48.316;10.650;2023-11-21T20:28:48;7.00;99.90
9668;DHT22;4872;48.316;10.650;2023-11-21T20:31:15;7.00;99.90
9668;DHT22;4872;48.316;10.650;2023-11-21T20:33:42;7.00;99.90
9668;DHT22;4872;48.316;10.650;2023-11-21T20:36:10;7.00;99.90
9668;DHT22;4872;48.316;10.650;2023-11-21T20:38:37;7.10;99.90
9668;DHT22;4872;48.316;10.650;2023-11-21T20:41:04;7.10;99.90
9668;DHT22;4872;48.316;10.650;2023-11-21T20:43:31;7.00;99.90
9668;DHT22;4872;48.316;10.650;2023-11-21T20:45:58;7.00;99.90
9668;DHT22;4872;48.316;10.650;2023-11-21T20:48:25;7.00;99.90
9668;DHT22;4872;48.316;10.650;2023-11-21T20:50:54;7.00;99.90
9668;DHT22;4872;48.316;10.650;2023-11-21T20:53:22;7.20;99.90
9668;DHT22;4872;48.316;10.650;2023-11-21T20:55:49;7.10;99.90
9668;DHT22;4872;48.316;10.650;2023-11-21T20:58:17;7.10;99.90
9668;DHT22;4872;48.316;10.650;2023-11-21T21:00:44;7.10;99.90
9668;DHT22;4872;48.316;10.650;2023-11-21T21:03:11;7.10;99.90